Time;durP1;ratioP1;P1;durP2;ratioP2;P2;SDS_P1;SDS_P2;PMS_P1;PMS_P2;Temp;Humidity;BMP_temperature;BMP_pressure;BME280_temperature;BME280_humidity;BME280_pressure;Samples;Min_cycle;Max_cycle;Signal;HPM_P1;HPM_P2
2023/04/29 00:03:19;;;;;;;20.77;14.43;;;;;;;-146.18;100.00;67994.34;10101805;28;20776;-66
2023/04/29 00:08:16;;;;;;;17.75;13.80;;;;;;;-146.18;100.00;67994.34;10097897;28;20047;-66
2023/04/29 00:13:13;;;;;;;16.73;13.77;;;;;;;-146.18;100.00;67994.34;10097517;28;20106;-66
2023/04/29 00:18:09;;;;;;;17.83;14.15;;;;;;;-146.18;100.00;67994.34;10101776;28;20050;-67
2023/04/29 00:23:06;;;;;;;18.90;14.52;;;;;;;-146.18;100.00;67994.34;10115445;28;20097;-67
2023/04/29 00:28:03;;;;;;;17.15;14.93;;;;;;;-146.18;100.00;67994.34;10106938;28;20058;-67
2023/04/29 00:33:00;;;;;;;21.13;16.80;;;;;;;-146.18;100.00;67994.34;10106839;28;20050;-67
2023/04/29 00:37:59;;;;;;;18.65;15.38;;;;;;;-146.18;100.00;67994.34;10106429;28;20049;-67
2023/04/29 00:42:56;;;;;;;16.83;14.60;;;;;;;-146.18;100.00;67994.34;10107420;28;20094;-66
2023/04/29 00:47:52;;;;;;;23.13;17.30;;;;;;;-146.18;100.00;67994.34;10105919;28;20055;-65
2023/04/29 00:52:51;;;;;;;20.85;16.95;;;;;;;-146.18;100.00;67994.34;10101839;28;20126;-67
2023/04/29 00:57:51;;;;;;;26.17;18.20;;;;;;;-146.18;100.00;67994.34;10105467;28;20425;-67
2023/04/29 01:02:48;;;;;;;20.27;15.90;;;;;;;-146.18;100.00;67994.34;10101720;28;20139;-67
2023/04/29 01:07:56;;;;;;;26.27;17.55;;;;;;;-146.18;100.00;67994.34;10100490;28;20070;-67
2023/04/29 01:13:16;;;;;;;22.42;16.63;;;;;;;-146.18;100.00;67994.34;10098171;28;20764;-67
2023/04/29 01:18:19;;;;;;;23.48;17.40;;;;;;;-146.18;100.00;67994.34;10102802;28;20077;-69
2023/04/29 01:23:16;;;;;;;19.85;16.83;;;;;;;-146.18;100.00;67994.34;10110129;28;20059;-69
2023/04/29 01:28:40;;;;;;;31.85;21.48;;;;;;;-146.18;100.00;67994.34;10106619;28;20050;-68
2023/04/29 01:33:43;;;;;;;20.27;16.25;;;;;;;-146.18;100.00;67994.34;10105723;28;20131;-67
2023/04/29 01:39:01;;;;;;;23.70;17.83;;;;;;;-146.18;100.00;67994.34;10112961;28;20053;-68
2023/04/29 01:44:00;;;;;;;22.75;17.42;;;;;;;-146.18;100.00;67994.34;10107945;28;20078;-68
2023/04/29 01:48:57;;;;;;;18.80;16.80;;;;;;;-146.18;100.00;67994.34;10107111;28;20058;-68
2023/04/29 01:53:53;;;;;;;21.60;16.77;;;;;;;-146.18;100.00;67994.34;10112249;28;20043;-68
2023/04/29 01:58:49;;;;;;;27.08;18.30;;;;;;;-146.18;100.00;67994.34;10105934;28;20142;-68
2023/04/29 02:03:46;;;;;;;24.35;18.35;;;;;;;-146.18;100.00;67994.34;10110664;28;20046;-69
2023/04/29 02:08:42;;;;;;;24.13;19.52;;;;;;;-146.18;100.00;67994.34;10093652;28;20086;-69
2023/04/29 02:13:39;;;;;;;25.52;18.33;;;;;;;-146.18;100.00;67994.34;10104060;28;20042;-69
2023/04/29 02:18:36;;;;;;;25.30;17.60;;;;;;;-146.18;100.00;67994.34;10102928;28;20130;-68
2023/04/29 02:23:36;;;;;;;24.27;18.60;;;;;;;-146.18;100.00;67994.34;10108281;28;20138;-67
2023/04/29 02:28:33;;;;;;;24.92;18.08;;;;;;;-146.18;100.00;67994.34;10108189;28;20051;-69
2023/04/29 02:33:32;;;;;;;20.67;17.63;;;;;;;-146.18;100.00;67994.34;10111794;28;20401;-68
2023/04/29 02:38:28;;;;;;;31.27;20.80;;;;;;;-146.18;100.00;67994.34;10108736;28;20386;-67
2023/04/29 02:43:25;;;;;;;22.50;18.42;;;;;;;-146.18;100.00;67994.34;10110215;28;20669;-67
2023/04/29 02:48:22;;;;;;;21.95;18.90;;;;;;;-146.18;100.00;67994.34;10111470;28;20050;-67
2023/04/29 02:53:19;;;;;;;23.10;18.92;;;;;;;-146.18;100.00;67994.34;10109648;28;20149;-69
2023/04/29 02:58:16;;;;;;;26.80;19.23;;;;;;;-146.18;100.00;67994.34;10111910;28;20513;-68
2023/04/29 03:03:12;;;;;;;23.80;18.63;;;;;;;-146.18;100.00;67994.34;10110637;28;20054;-69
2023/04/29 03:08:10;;;;;;;25.77;20.35;;;;;;;-146.18;100.00;67994.34;10107547;28;20047;-69
2023/04/29 03:13:06;;;;;;;22.85;18.42;;;;;;;-146.18;100.00;67994.34;10109680;28;20050;-67
2023/04/29 03:18:03;;;;;;;26.48;20.90;;;;;;;-146.18;100.00;67994.34;10108970;28;20074;-67
2023/04/29 03:23:01;;;;;;;23.13;18.17;;;;;;;-146.18;100.00;67994.34;10104660;28;20564;-67
2023/04/29 03:27:57;;;;;;;22.85;18.58;;;;;;;-146.18;100.00;67994.34;10109484;28;20491;-67
2023/04/29 03:32:54;;;;;;;25.10;19.10;;;;;;;-146.18;100.00;67994.34;10101171;28;20735;-68
2023/04/29 03:37:50;;;;;;;22.00;18.38;;;;;;;-146.18;100.00;67994.34;10108689;28;20133;-68
2023/04/29 03:42:47;;;;;;;26.70;19.40;;;;;;;-146.18;100.00;67994.34;10112408;28;20481;-68
2023/04/29 03:47:43;;;;;;;24.10;19.75;;;;;;;-146.18;100.00;67994.34;10108285;28;20046;-69
2023/04/29 03:52:40;;;;;;;22.13;19.10;;;;;;;-146.18;100.00;67994.34;10110061;28;20134;-68
2023/04/29 03:57:36;;;;;;;23.02;18.55;;;;;;;-146.18;100.00;67994.34;10117220;28;20053;-69
2023/04/29 04:02:34;;;;;;;24.33;19.83;;;;;;;-146.18;100.00;67994.34;10136992;28;20061;-68
2023/04/29 04:07:30;;;;;;;26.65;19.52;;;;;;;-146.18;100.00;67994.34;10116473;28;20058;-68
2023/04/29 04:12:27;;;;;;;26.90;18.45;;;;;;;-146.18;100.00;67994.34;10118087;28;20146;-67
2023/04/29 04:17:23;;;;;;;24.25;18.73;;;;;;;-146.18;100.00;67994.34;10119517;28;20054;-68
2023/04/29 04:22:20;;;;;;;26.00;18.90;;;;;;;-146.18;100.00;67994.34;10122718;28;20053;-67
2023/04/29 04:27:16;;;;;;;24.60;18.90;;;;;;;-146.18;100.00;67994.34;10120054;28;20058;-68
2023/04/29 04:32:12;;;;;;;22.90;19.00;;;;;;;-146.18;100.00;67994.34;10120988;28;20428;-68
2023/04/29 04:37:09;;;;;;;25.95;20.15;;;;;;;-146.18;100.00;67994.34;10112291;28;20046;-68
2023/04/29 04:42:05;;;;;;;23.33;18.52;;;;;;;-146.18;100.00;67994.34;10120663;28;20058;-68
2023/04/29 04:47:02;;;;;;;25.70;20.60;;;;;;;-146.18;100.00;67994.34;10122033;28;20493;-68
2023/04/29 04:51:58;;;;;;;24.83;19.08;;;;;;;-146.18;100.00;67994.34;10121474;28;20085;-69
2023/04/29 04:56:55;;;;;;;27.73;18.05;;;;;;;-146.18;100.00;67994.34;10123079;28;20073;-69
2023/04/29 05:01:51;;;;;;;24.38;19.70;;;;;;;-146.18;100.00;67994.34;10123731;28;20511;-69
2023/04/29 05:06:48;;;;;;;26.33;18.95;;;;;;;-146.18;100.00;67994.34;10117251;28;20559;-68
2023/04/29 05:11:45;;;;;;;21.52;18.35;;;;;;;-146.18;100.00;67994.34;10115051;28;20062;-69
2023/04/29 05:16:42;;;;;;;26.90;20.83;;;;;;;-146.18;100.00;67994.34;10113082;28;20117;-68
2023/04/29 05:21:39;;;;;;;22.70;18.17;;;;;;;-146.18;100.00;67994.34;10112985;28;20073;-68
2023/04/29 05:26:35;;;;;;;24.95;19.70;;;;;;;-146.18;100.00;67994.34;10113313;28;20074;-68
2023/04/29 05:31:32;;;;;;;21.27;17.58;;;;;;;-146.18;100.00;67994.34;10112146;28;20043;-69
2023/04/29 05:36:28;;;;;;;19.63;17.23;;;;;;;-146.18;100.00;67994.34;10113179;28;20698;-68
2023/04/29 05:41:25;;;;;;;23.48;17.83;;;;;;;-146.18;100.00;67994.34;10114290;28;20054;-68
2023/04/29 05:46:21;;;;;;;21.40;17.15;;;;;;;-146.18;100.00;67994.34;10113089;28;20054;-68
2023/04/29 05:51:18;;;;;;;22.17;15.18;;;;;;;-146.18;100.00;67994.34;10111737;28;20094;-68
2023/04/29 05:56:15;;;;;;;20.85;15.55;;;;;;;-146.18;100.00;67994.34;10111883;28;20497;-68
2023/04/29 06:01:12;;;;;;;19.05;14.55;;;;;;;-146.18;100.00;67994.34;10112677;28;20042;-68
2023/04/29 06:06:09;;;;;;;26.08;16.85;;;;;;;-146.18;100.00;67994.34;10113606;28;20492;-68
2023/04/29 06:11:06;;;;;;;17.98;14.52;;;;;;;-146.18;100.00;67994.34;10108281;28;20488;-68
2023/04/29 06:16:02;;;;;;;17.10;14.15;;;;;;;-146.18;100.00;67994.34;10108009;28;20063;-68
2023/04/29 06:20:59;;;;;;;14.25;12.85;;;;;;;-146.18;100.00;67994.34;10106860;28;20047;-67
2023/04/29 06:25:56;;;;;;;17.60;12.60;;;;;;;-146.18;100.00;67994.34;10110300;28;20058;-68
2023/04/29 06:30:52;;;;;;;23.65;12.68;;;;;;;-146.18;100.00;67994.34;10107316;28;20789;-66
2023/04/29 06:35:49;;;;;;;18.55;12.60;;;;;;;-146.18;100.00;67994.34;10109392;28;20070;-69
2023/04/29 06:40:45;;;;;;;16.80;12.27;;;;;;;-146.18;100.00;67994.34;10109181;28;20050;-68
2023/04/29 06:45:45;;;;;;;18.90;13.40;;;;;;;-146.18;100.00;67994.34;10110275;28;20129;-68
2023/04/29 06:50:55;;;;;;;23.83;14.10;;;;;;;-146.18;100.00;67994.34;10102887;28;20074;-68
2023/04/29 06:55:52;;;;;;;16.67;12.85;;;;;;;-146.18;100.00;67994.34;10103519;28;20089;-68
2023/04/29 07:00:49;;;;;;;15.95;12.65;;;;;;;-146.18;100.00;67994.34;10109142;28;20047;-68
2023/04/29 07:05:46;;;;;;;17.88;13.20;;;;;;;-146.18;100.00;67994.34;10109211;28;20120;-72
2023/04/29 07:10:43;;;;;;;16.80;13.32;;;;;;;-146.18;100.00;67994.34;10110276;28;20813;-72
2023/04/29 07:15:39;;;;;;;19.45;12.18;;;;;;;-146.18;100.00;67994.34;10102303;28;20081;-73
2023/04/29 07:20:36;;;;;;;13.57;10.77;;;;;;;-146.18;100.00;67994.34;10109030;28;20070;-72
2023/04/29 07:25:32;;;;;;;11.20;9.48;;;;;;;-146.18;100.00;67994.34;10111215;28;20669;-73
2023/04/29 07:30:29;;;;;;;13.07;9.60;;;;;;;-146.18;100.00;67994.34;10101394;28;20457;-71
2023/04/29 07:35:26;;;;;;;13.05;10.35;;;;;;;-146.18;100.00;67994.34;10100225;28;20042;-71
2023/04/29 07:40:22;;;;;;;11.63;9.60;;;;;;;-146.18;100.00;67994.34;10108129;28;20477;-67
2023/04/29 07:45:19;;;;;;;10.88;8.98;;;;;;;-146.18;100.00;67994.34;10106879;28;20046;-67
2023/04/29 07:50:16;;;;;;;10.00;8.30;;;;;;;-146.18;100.00;67994.34;10104500;28;20113;-67
2023/04/29 07:55:12;;;;;;;17.45;10.27;;;;;;;-146.18;100.00;67994.34;10100779;28;20125;-72
2023/04/29 08:00:09;;;;;;;11.30;9.25;;;;;;;-146.18;100.00;67994.34;10106353;28;20481;-71
2023/04/29 08:05:06;;;;;;;13.50;9.85;;;;;;;-146.18;100.00;67994.34;10108171;28;20145;-67
2023/04/29 08:10:04;;;;;;;11.07;9.35;;;;;;;-146.18;100.00;67994.34;10100553;28;20061;-71
2023/04/29 08:15:01;;;;;;;11.60;9.80;;;;;;;-146.18;100.00;67994.34;10096936;28;20411;-72
2023/04/29 08:19:57;;;;;;;11.65;8.65;;;;;;;-146.18;100.00;67994.34;10105461;28;20066;-72
2023/04/29 08:24:54;;;;;;;12.43;9.32;;;;;;;-146.18;100.00;67994.34;10108841;28;20959;-72
2023/04/29 08:29:51;;;;;;;12.82;8.57;;;;;;;-146.18;100.00;67994.34;10108118;28;20054;-72
2023/04/29 08:34:47;;;;;;;10.05;8.63;;;;;;;-146.18;100.00;67994.34;10106581;28;20086;-72
2023/04/29 08:39:46;;;;;;;12.35;9.50;;;;;;;-146.18;100.00;67994.34;10101117;28;20464;-73
2023/04/29 08:44:43;;;;;;;12.48;9.13;;;;;;;-146.18;100.00;67994.34;10109673;28;20053;-73
2023/04/29 08:49:42;;;;;;;13.73;10.25;;;;;;;-146.18;100.00;67994.34;10114571;28;20078;-73
2023/04/29 08:54:38;;;;;;;13.25;11.18;;;;;;;-146.18;100.00;67994.34;10109035;28;20078;-74
2023/04/29 08:59:35;;;;;;;13.25;10.77;;;;;;;-146.18;100.00;67994.34;10103542;28;20150;-71
2023/04/29 09:04:51;;;;;;;13.60;10.10;;;;;;;-146.18;100.00;67994.34;10111738;28;20085;-73
2023/04/29 09:09:50;;;;;;;17.70;10.88;;;;;;;-146.18;100.00;67994.34;10113554;28;20049;-74
2023/04/29 09:14:47;;;;;;;13.30;10.35;;;;;;;-146.18;100.00;67994.34;10109101;28;20043;-73
2023/04/29 09:19:44;;;;;;;12.27;10.60;;;;;;;-146.18;100.00;67994.34;10106826;28;20053;-73
2023/04/29 09:24:42;;;;;;;12.63;11.18;;;;;;;-146.18;100.00;67994.34;10109557;28;20043;-73
2023/04/29 09:29:59;;;;;;;14.82;11.50;;;;;;;-146.18;100.00;67994.34;10110786;28;20058;-72
2023/04/29 09:34:55;;;;;;;14.10;11.20;;;;;;;-146.18;100.00;67994.34;10106014;28;20900;-74
2023/04/29 09:39:53;;;;;;;16.38;11.10;;;;;;;-146.18;100.00;67994.34;10108341;28;20043;-73
2023/04/29 09:44:50;;;;;;;14.10;10.80;;;;;;;-146.18;100.00;67994.34;10102861;28;20095;-73
2023/04/29 09:49:48;;;;;;;15.25;10.20;;;;;;;-146.18;100.00;67994.34;10086674;28;20043;-73
2023/04/29 09:54:45;;;;;;;11.80;10.70;;;;;;;-146.18;100.00;67994.34;10090725;28;20070;-73
2023/04/29 09:59:42;;;;;;;11.82;10.60;;;;;;;-146.18;100.00;67994.34;10099451;28;20058;-73
2023/04/29 10:04:40;;;;;;;13.43;11.20;;;;;;;-146.18;100.00;67994.34;10098696;28;20058;-73
2023/04/29 10:09:38;;;;;;;10.27;9.15;;;;;;;-146.18;100.00;67994.34;10103870;28;20501;-73
2023/04/29 10:14:44;;;;;;;9.57;8.40;;;;;;;-146.18;100.00;67994.34;10101604;28;20042;-74
2023/04/29 10:19:55;;;;;;;10.50;8.85;;;;;;;-146.18;100.00;67994.34;10093065;28;20039;-74
2023/04/29 10:24:54;;;;;;;11.93;8.93;;;;;;;-146.18;100.00;67994.34;10096000;28;20051;-74
2023/04/29 10:29:51;;;;;;;9.85;8.48;;;;;;;-146.18;100.00;67994.34;10096993;28;20097;-74
2023/04/29 10:34:51;;;;;;;9.50;8.02;;;;;;;-146.18;100.00;67994.34;10102327;28;20046;-74
2023/04/29 10:40:00;;;;;;;14.77;9.55;;;;;;;-146.18;100.00;67994.34;10093423;28;20537;-73
2023/04/29 10:45:34;;;;;;;9.77;7.97;;;;;;;-146.18;100.00;67994.34;10105130;28;20051;-74
2023/04/29 10:50:32;;;;;;;9.82;8.50;;;;;;;-146.18;100.00;67994.34;10099855;28;20043;-74
2023/04/29 10:55:30;;;;;;;11.48;9.68;;;;;;;-146.18;100.00;67994.34;10098763;28;20049;-74
2023/04/29 11:00:29;;;;;;;10.50;8.82;;;;;;;-146.18;100.00;67994.34;10101770;28;20074;-74
2023/04/29 11:05:33;;;;;;;11.38;10.13;;;;;;;-146.18;100.00;67994.34;10094760;28;20047;-74
2023/04/29 11:10:37;;;;;;;11.15;10.05;;;;;;;-146.18;100.00;67994.34;10095804;28;20094;-74
2023/04/29 11:15:34;;;;;;;10.30;8.85;;;;;;;-146.18;100.00;67994.34;10096094;28;20602;-74
2023/04/29 11:20:30;;;;;;;12.40;9.15;;;;;;;-146.18;100.00;67994.34;10097550;28;20068;-74
2023/04/29 11:25:27;;;;;;;12.85;8.73;;;;;;;-146.18;100.00;67994.34;10090975;28;20081;-74
2023/04/29 11:30:24;;;;;;;13.82;10.07;;;;;;;-146.18;100.00;67994.34;10091095;28;20047;-73
2023/04/29 11:35:20;;;;;;;13.77;9.55;;;;;;;-146.18;100.00;67994.34;10092879;28;20118;-74
2023/04/29 11:40:16;;;;;;;11.88;8.38;;;;;;;-146.18;100.00;67994.34;10101096;28;20142;-74
2023/04/29 11:45:15;;;;;;;10.88;9.38;;;;;;;-146.18;100.00;67994.34;10105554;28;20066;-73
2023/04/29 11:50:15;;;;;;;12.45;9.43;;;;;;;-146.18;100.00;67994.34;10091288;28;20508;-73
2023/04/29 11:55:13;;;;;;;12.85;10.00;;;;;;;-146.18;100.00;67994.34;10100497;28;20043;-73
2023/04/29 12:00:12;;;;;;;8.32;7.32;;;;;;;-146.18;100.00;67994.34;10098621;28;20792;-73
2023/04/29 12:05:09;;;;;;;12.30;9.45;;;;;;;-146.18;100.00;67994.34;10104554;28;20500;-73
2023/04/29 12:10:10;;;;;;;13.38;8.77;;;;;;;-146.18;100.00;67994.34;10100279;28;20043;-73
2023/04/29 12:15:08;;;;;;;8.50;7.70;;;;;;;-146.18;100.00;67994.34;10088728;28;20054;-73
2023/04/29 12:20:08;;;;;;;10.50;8.32;;;;;;;-146.18;100.00;67994.34;10103124;28;20528;-74
2023/04/29 12:25:06;;;;;;;10.10;7.90;;;;;;;-146.18;100.00;67994.34;10103221;28;20055;-73
2023/04/29 12:30:08;;;;;;;10.13;7.90;;;;;;;-146.18;100.00;67994.34;10110170;28;20576;-73
2023/04/29 12:35:04;;;;;;;8.60;7.60;;;;;;;-146.18;100.00;67994.34;10103203;28;20624;-74
2023/04/29 12:40:01;;;;;;;7.68;6.70;;;;;;;-146.18;100.00;67994.34;10110833;28;20098;-74
2023/04/29 12:44:58;;;;;;;6.85;6.22;;;;;;;-146.18;100.00;67994.34;10104816;28;20087;-73
2023/04/29 12:49:56;;;;;;;6.53;5.93;;;;;;;-146.18;100.00;67994.34;10096640;28;20061;-74
2023/04/29 12:54:52;;;;;;;7.93;6.07;;;;;;;-146.18;100.00;67994.34;10111115;28;20465;-74
2023/04/29 12:59:49;;;;;;;10.13;6.90;;;;;;;-146.18;100.00;67994.34;10104133;28;20054;-74
2023/04/29 13:04:45;;;;;;;8.18;7.18;;;;;;;-146.18;100.00;67994.34;10107030;28;20047;-73
2023/04/29 13:09:42;;;;;;;8.82;7.35;;;;;;;-146.18;100.00;67994.34;10104885;28;20043;-74
2023/04/29 13:14:39;;;;;;;12.45;8.95;;;;;;;-146.18;100.00;67994.34;10092355;28;20185;-73
2023/04/29 13:19:35;;;;;;;8.30;7.22;;;;;;;-146.18;100.00;67994.34;10105091;28;20043;-73
2023/04/29 13:24:47;;;;;;;10.93;8.30;;;;;;;-146.18;100.00;67994.34;10098336;28;20051;-73
2023/04/29 13:29:43;;;;;;;8.82;7.28;;;;;;;-146.18;100.00;67994.34;10111164;28;20050;-74
2023/04/29 13:34:42;;;;;;;11.13;7.18;;;;;;;-146.18;100.00;67994.34;10098977;28;20425;-73
2023/04/29 13:39:38;;;;;;;8.98;6.97;;;;;;;-146.18;100.00;67994.34;10102648;28;20099;-74
2023/04/29 13:44:35;;;;;;;8.27;6.70;;;;;;;-146.18;100.00;67994.34;10101456;28;20051;-74
2023/04/29 13:49:48;;;;;;;6.35;5.18;;;;;;;-146.18;100.00;67994.34;10103547;28;20049;-73
2023/04/29 13:54:47;;;;;;;5.97;5.38;;;;;;;-146.18;100.00;67994.34;10096340;28;20477;-73
2023/04/29 14:00:05;;;;;;;7.20;6.30;;;;;;;-146.18;100.00;67994.34;10100450;28;20065;-72
2023/04/29 14:05:21;;;;;;;6.40;5.63;;;;;;;-146.18;100.00;67994.34;10095467;28;20508;-73
2023/04/29 14:10:18;;;;;;;8.75;5.65;;;;;;;-146.18;100.00;67994.34;10095136;28;20047;-73
2023/04/29 14:15:15;;;;;;;7.15;5.63;;;;;;;-146.18;100.00;67994.34;10105912;28;20466;-72
2023/04/29 14:20:12;;;;;;;7.43;5.97;;;;;;;-146.18;100.00;67994.34;10110329;28;20047;-70
2023/04/29 14:25:08;;;;;;;9.65;6.72;;;;;;;-146.18;100.00;67994.34;10109798;28;20057;-71
2023/04/29 14:30:06;;;;;;;7.90;6.15;;;;;;;-146.18;100.00;67994.34;10108283;28;20061;-72
2023/04/29 14:35:02;;;;;;;6.65;5.95;;;;;;;-146.18;100.00;67994.34;10107383;28;20489;-72
2023/04/29 14:39:59;;;;;;;6.70;5.60;;;;;;;-146.18;100.00;67994.34;10110997;28;20047;-73
2023/04/29 14:44:56;;;;;;;6.18;5.57;;;;;;;-146.18;100.00;67994.34;10113956;28;20834;-74
2023/04/29 14:49:52;;;;;;;6.03;5.53;;;;;;;-146.18;100.00;67994.34;10107500;28;20043;-73
2023/04/29 14:54:49;;;;;;;6.50;5.90;;;;;;;-146.18;100.00;67994.34;10108283;28;20046;-74
2023/04/29 14:59:45;;;;;;;6.93;5.50;;;;;;;-146.18;100.00;67994.34;10103454;28;20138;-73
2023/04/29 15:04:44;;;;;;;6.55;5.75;;;;;;;-146.18;100.00;67994.34;10106862;28;20547;-72
2023/04/29 15:09:41;;;;;;;6.35;5.15;;;;;;;-146.18;100.00;67994.34;10101798;28;20584;-72
2023/04/29 15:14:37;;;;;;;6.40;5.70;;;;;;;-146.18;100.00;67994.34;10083681;28;20057;-73
2023/04/29 15:19:34;;;;;;;9.07;5.22;;;;;;;-146.18;100.00;67994.34;10098457;28;20075;-73
2023/04/29 15:24:30;;;;;;;5.70;5.20;;;;;;;-146.18;100.00;67994.34;10092663;28;20043;-72
2023/04/29 15:29:28;;;;;;;6.70;6.10;;;;;;;-146.18;100.00;67994.34;10084373;28;20066;-72
2023/04/29 15:34:24;;;;;;;7.25;6.22;;;;;;;-146.18;100.00;67994.34;10101240;28;20820;-73
2023/04/29 15:39:21;;;;;;;6.43;5.38;;;;;;;-146.18;100.00;67994.34;10101835;28;20675;-73
2023/04/29 15:44:17;;;;;;;6.90;5.53;;;;;;;-146.18;100.00;67994.34;10097278;28;20134;-73
2023/04/29 15:49:14;;;;;;;8.88;6.40;;;;;;;-146.18;100.00;67994.34;10104407;28;20039;-74
2023/04/29 15:54:10;;;;;;;6.28;5.65;;;;;;;-146.18;100.00;67994.34;10104637;28;20424;-74
2023/04/29 15:59:06;;;;;;;7.93;5.75;;;;;;;-146.18;100.00;67994.34;10106480;28;20057;-73
2023/04/29 16:04:03;;;;;;;5.93;5.40;;;;;;;-146.18;100.00;67994.34;10101357;28;20050;-73
2023/04/29 16:09:00;;;;;;;7.53;6.32;;;;;;;-146.18;100.00;67994.34;10095760;28;20047;-72
2023/04/29 16:13:56;;;;;;;9.85;5.85;;;;;;;-146.18;100.00;67994.34;10098297;28;20106;-73
2023/04/29 16:18:53;;;;;;;6.57;5.90;;;;;;;-146.18;100.00;67994.34;10094427;28;20035;-72
2023/04/29 16:23:50;;;;;;;6.30;5.57;;;;;;;-146.18;100.00;67994.34;10096795;28;20050;-72
2023/04/29 16:28:46;;;;;;;9.27;6.10;;;;;;;-146.18;100.00;67994.34;10096312;28;20055;-73
2023/04/29 16:33:43;;;;;;;10.95;5.68;;;;;;;-146.18;100.00;67994.34;10085640;28;20134;-72
2023/04/29 16:38:39;;;;;;;8.63;5.53;;;;;;;-146.18;100.00;67994.34;10100320;28;20485;-73
2023/04/29 16:43:36;;;;;;;8.95;5.20;;;;;;;-146.18;100.00;67994.34;10093159;28;21020;-72
2023/04/29 16:48:33;;;;;;;9.88;5.70;;;;;;;-146.18;100.00;67994.34;10094318;28;20054;-71
2023/04/29 16:53:29;;;;;;;9.57;5.40;;;;;;;-146.18;100.00;67994.34;10093613;28;20071;-72
2023/04/29 16:58:25;;;;;;;8.23;5.65;;;;;;;-146.18;100.00;67994.34;10090954;28;20460;-72
2023/04/29 17:03:22;;;;;;;9.52;6.25;;;;;;;-146.18;100.00;67994.34;10099569;28;20058;-73
2023/04/29 17:08:19;;;;;;;12.05;6.47;;;;;;;-146.18;100.00;67994.34;10102494;28;20093;-72
2023/04/29 17:13:18;;;;;;;11.25;5.95;;;;;;;-146.18;100.00;67994.34;10103567;28;20058;-72
2023/04/29 17:18:14;;;;;;;14.02;6.53;;;;;;;-146.18;100.00;67994.34;10099456;28;20055;-73
2023/04/29 17:23:11;;;;;;;9.02;5.57;;;;;;;-146.18;100.00;67994.34;10101993;28;20046;-72
2023/04/29 17:28:08;;;;;;;8.50;5.82;;;;;;;-146.18;100.00;67994.34;10102329;28;20158;-72
2023/04/29 17:33:04;;;;;;;9.40;5.32;;;;;;;-146.18;100.00;67994.34;10100992;28;20047;-73
2023/04/29 17:38:01;;;;;;;8.18;4.93;;;;;;;-146.18;100.00;67994.34;10103027;28;20089;-73
2023/04/29 17:42:57;;;;;;;9.50;5.38;;;;;;;-146.18;100.00;67994.34;10087591;28;20775;-73
2023/04/29 17:47:54;;;;;;;10.48;5.22;;;;;;;-146.18;100.00;67994.34;10090013;28;20054;-73
2023/04/29 17:52:51;;;;;;;6.55;4.90;;;;;;;-146.18;100.00;67994.34;10098756;28;20068;-73
2023/04/29 17:57:47;;;;;;;9.68;5.10;;;;;;;-146.18;100.00;67994.34;10099538;28;20532;-73
2023/04/29 18:02:44;;;;;;;12.00;6.47;;;;;;;-146.18;100.00;67994.34;10096104;28;20158;-73
2023/04/29 18:07:40;;;;;;;7.75;5.32;;;;;;;-146.18;100.00;67994.34;10099599;28;20042;-74
2023/04/29 18:12:37;;;;;;;9.45;5.38;;;;;;;-146.18;100.00;67994.34;10108459;28;20659;-74
2023/04/29 18:17:33;;;;;;;8.80;5.20;;;;;;;-146.18;100.00;67994.34;10100853;28;20545;-75
2023/04/29 18:22:30;;;;;;;7.90;5.15;;;;;;;-146.18;100.00;67994.34;10109499;28;20043;-75
2023/04/29 18:27:26;;;;;;;11.25;4.50;;;;;;;-146.18;100.00;67994.34;10111848;28;20050;-75
2023/04/29 18:32:22;;;;;;;7.97;4.90;;;;;;;-146.18;100.00;67994.34;10107372;28;20042;-75
2023/04/29 18:37:19;;;;;;;10.90;5.20;;;;;;;-146.18;100.00;67994.34;10110944;28;20118;-74
2023/04/29 18:42:15;;;;;;;12.15;5.60;;;;;;;-146.18;100.00;67994.34;10110604;28;20138;-75
2023/04/29 18:47:12;;;;;;;12.35;5.32;;;;;;;-146.18;100.00;67994.34;10108583;28;20051;-74
2023/04/29 18:52:08;;;;;;;6.68;4.93;;;;;;;-146.18;100.00;67994.34;10109957;28;20497;-74
2023/04/29 18:57:05;;;;;;;9.38;5.00;;;;;;;-146.18;100.00;67994.34;10100559;28;20074;-74
2023/04/29 19:02:03;;;;;;;9.95;5.20;;;;;;;-146.18;100.00;67994.34;10096697;28;20054;-75
2023/04/29 19:06:59;;;;;;;12.13;4.95;;;;;;;-146.18;100.00;67994.34;10096267;28;20117;-74
2023/04/29 19:11:58;;;;;;;12.40;6.00;;;;;;;-146.18;100.00;67994.34;10094804;28;20081;-75
2023/04/29 19:16:55;;;;;;;11.27;6.60;;;;;;;-146.18;100.00;67994.34;10099997;28;20042;-74
2023/04/29 19:21:52;;;;;;;13.02;5.40;;;;;;;-146.18;100.00;67994.34;10099902;28;20835;-74
2023/04/29 19:26:49;;;;;;;11.32;4.80;;;;;;;-146.18;100.00;67994.34;10096469;28;20055;-74
2023/04/29 19:31:49;;;;;;;10.82;5.03;;;;;;;-146.18;100.00;67994.34;10090021;28;20054;-74
2023/04/29 19:36:45;;;;;;;9.15;5.20;;;;;;;-146.18;100.00;67994.34;10097853;28;20042;-74
2023/04/29 19:41:43;;;;;;;8.75;4.78;;;;;;;-146.18;100.00;67994.34;10101583;28;20046;-75
2023/04/29 19:46:39;;;;;;;6.72;4.57;;;;;;;-146.18;100.00;67994.34;10099089;28;20047;-75
2023/04/29 19:51:36;;;;;;;10.57;5.97;;;;;;;-146.18;100.00;67994.34;10098378;28;20048;-74
2023/04/29 19:56:33;;;;;;;6.88;5.10;;;;;;;-146.18;100.00;67994.34;10090936;28;20045;-74
2023/04/29 20:01:29;;;;;;;10.50;4.82;;;;;;;-146.18;100.00;67994.34;10104744;28;20079;-74
2023/04/29 20:06:27;;;;;;;9.85;5.47;;;;;;;-146.18;100.00;67994.34;10098221;28;20416;-74
2023/04/29 20:11:23;;;;;;;9.02;6.15;;;;;;;-146.18;100.00;67994.34;10110802;28;20575;-74
2023/04/29 20:16:22;;;;;;;9.73;5.05;;;;;;;-146.18;100.00;67994.34;10096220;28;20043;-75
2023/04/29 20:21:18;;;;;;;8.48;5.50;;;;;;;-146.18;100.00;67994.34;10106264;28;20078;-74
2023/04/29 20:26:16;;;;;;;7.80;5.30;;;;;;;-146.18;100.00;67994.34;10101916;28;20046;-73
2023/04/29 20:31:15;;;;;;;10.80;6.05;;;;;;;-146.18;100.00;67994.34;10099254;28;20528;-74
2023/04/29 20:36:12;;;;;;;9.23;4.78;;;;;;;-146.18;100.00;67994.34;10110327;28;20138;-74
2023/04/29 20:41:09;;;;;;;11.65;6.13;;;;;;;-146.18;100.00;67994.34;10113131;28;20142;-73
2023/04/29 20:46:06;;;;;;;9.63;5.90;;;;;;;-146.18;100.00;67994.34;10114793;28;20082;-74
2023/04/29 20:51:02;;;;;;;12.63;6.53;;;;;;;-146.18;100.00;67994.34;10113871;28;20129;-74
2023/04/29 20:55:59;;;;;;;14.95;7.47;;;;;;;-146.18;100.00;67994.34;10111528;28;20146;-73
2023/04/29 21:00:55;;;;;;;13.63;5.90;;;;;;;-146.18;100.00;67994.34;10107430;28;20549;-74
2023/04/29 21:05:53;;;;;;;10.65;5.78;;;;;;;-146.18;100.00;67994.34;10107859;28;20489;-74
2023/04/29 21:10:50;;;;;;;7.40;4.63;;;;;;;-146.18;100.00;67994.34;10106772;28;20047;-73
2023/04/29 21:15:47;;;;;;;9.75;5.40;;;;;;;-146.18;100.00;67994.34;10102993;28;20089;-73
2023/04/29 21:20:44;;;;;;;9.93;4.75;;;;;;;-146.18;100.00;67994.34;10100589;28;20047;-73
2023/04/29 21:25:44;;;;;;;14.68;5.18;;;;;;;-146.18;100.00;67994.34;10098890;28;20056;-73
2023/04/29 21:30:41;;;;;;;13.98;4.78;;;;;;;-146.18;100.00;67994.34;10097042;28;20058;-72
2023/04/29 21:35:40;;;;;;;9.77;5.30;;;;;;;-146.18;100.00;67994.34;10107104;28;20047;-73
2023/04/29 21:40:41;;;;;;;13.43;5.88;;;;;;;-146.18;100.00;67994.34;10107094;28;20051;-73
2023/04/29 21:45:41;;;;;;;10.00;5.68;;;;;;;-146.18;100.00;67994.34;10100359;28;20042;-73
2023/04/29 21:50:39;;;;;;;13.05;6.90;;;;;;;-146.18;100.00;67994.34;10108705;28;20055;-73
2023/04/29 21:55:35;;;;;;;15.77;6.50;;;;;;;-146.18;100.00;67994.34;10102724;28;20093;-73
2023/04/29 22:00:35;;;;;;;11.27;5.32;;;;;;;-146.18;100.00;67994.34;10100062;28;20527;-72
2023/04/29 22:05:31;;;;;;;13.48;5.57;;;;;;;-146.18;100.00;67994.34;10112813;28;20147;-69